createdAt,value
2022-07-31T00:00:15.266Z,99953.63
2022-07-31T00:02:41.907Z,99945.22
2022-07-31T00:05:08.982Z,99943.91
2022-07-31T00:07:35.520Z,99946.00
2022-07-31T00:10:02.144Z,99943.47
2022-07-31T00:12:28.970Z,99938.44
2022-07-31T00:14:55.518Z,99931.94
2022-07-31T00:17:22.159Z,99933.81
2022-07-31T00:19:49.119Z,99939.69
2022-07-31T00:22:15.734Z,99933.38
2022-07-31T00:24:42.259Z,99932.09
2022-07-31T00:27:10.749Z,99938.59
2022-07-31T00:29:38.160Z,99938.78
2022-07-31T00:32:05.129Z,99944.22
2022-07-31T00:34:32.162Z,99943.59
2022-07-31T00:36:58.720Z,99945.88
2022-07-31T00:39:25.267Z,99943.34
2022-07-31T00:41:51.834Z,99950.69
2022-07-31T00:44:18.418Z,99945.44
2022-07-31T00:46:45.170Z,99942.06
2022-07-31T00:49:11.766Z,99946.88
2022-07-31T00:51:39.615Z,99947.06
2022-07-31T00:54:08.477Z,99953.53
2022-07-31T00:56:35.534Z,99947.28
2022-07-31T00:59:03.271Z,99948.84
2022-07-31T01:01:30.815Z,99947.19
2022-07-31T01:03:57.943Z,99954.31
2022-07-31T01:06:24.543Z,99959.13
2022-07-31T01:08:51.030Z,99962.03
2022-07-31T01:11:21.760Z,99967.47
2022-07-31T01:13:52.369Z,99958.44
2022-07-31T01:16:19.783Z,99961.84
2022-07-31T01:18:47.853Z,99954.72
2022-07-31T01:21:20.933Z,99957.44
2022-07-31T01:23:55.349Z,99961.19
2022-07-31T01:26:40.719Z,99958.69
2022-07-31T01:29:16.451Z,99969.16
2022-07-31T01:31:48.056Z,99960.81
2022-07-31T01:34:24.438Z,99967.94
2022-07-31T01:37:00.496Z,99971.28
2022-07-31T01:39:33.691Z,99961.09
2022-07-31T01:42:04.050Z,99967.56
2022-07-31T01:44:36.446Z,99965.50
2022-07-31T01:47:03.857Z,99972.63
2022-07-31T01:49:32.791Z,99969.88
2022-07-31T01:52:04.403Z,99976.19
2022-07-31T01:54:33.970Z,99964.25
2022-07-31T01:57:03.396Z,99959.44
2022-07-31T01:59:34.126Z,99961.97
2022-07-31T02:02:04.648Z,99952.56
2022-07-31T02:04:33.812Z,99954.88
2022-07-31T02:07:04.117Z,99954.69
2022-07-31T02:09:33.378Z,99953.63
2022-07-31T02:12:01.063Z,99951.38
2022-07-31T02:14:29.007Z,99947.63
2022-07-31T02:16:56.267Z,99950.78
2022-07-31T02:19:24.625Z,99947.00
2022-07-31T02:21:51.302Z,99945.97
2022-07-31T02:24:18.174Z,99942.41
2022-07-31T02:26:47.127Z,99942.59
2022-07-31T02:29:20.015Z,99942.59
2022-07-31T02:32:09.377Z,99931.50
2022-07-31T02:34:36.324Z,99943.22
2022-07-31T02:37:04.269Z,99935.06
2022-07-31T02:39:33.872Z,99950.16
2022-07-31T02:42:02.052Z,99942.41
2022-07-31T02:44:32.241Z,99939.69
2022-07-31T02:47:02.398Z,99941.56
2022-07-31T02:49:30.629Z,99938.19
2022-07-31T02:51:57.735Z,99943.66
2022-07-31T02:54:26.043Z,99935.66
2022-07-31T02:56:53.907Z,99929.16
2022-07-31T02:59:22.115Z,99941.94
2022-07-31T03:01:48.726Z,99936.31
2022-07-31T03:04:15.474Z,99937.34
2022-07-31T03:06:42.007Z,99936.72
2022-07-31T03:09:08.589Z,99943.00
2022-07-31T03:11:35.887Z,99939.44
2022-07-31T03:14:03.911Z,99948.66
2022-07-31T03:16:31.982Z,99945.28
2022-07-31T03:18:58.538Z,99942.56
2022-07-31T03:21:25.690Z,99944.44
2022-07-31T03:23:52.802Z,99941.91
2022-07-31T03:26:19.671Z,99948.41
2022-07-31T03:28:46.339Z,99945.69
2022-07-31T03:31:12.930Z,99944.84
2022-07-31T03:33:39.447Z,99939.38
2022-07-31T03:36:06.209Z,99944.84
2022-07-31T03:38:39.119Z,99942.31
2022-07-31T03:41:09.683Z,99944.19
2022-07-31T03:43:43.732Z,99935.81
2022-07-31T03:46:16.202Z,99929.53
2022-07-31T03:48:42.742Z,99929.34
2022-07-31T03:51:09.615Z,99936.47
2022-07-31T03:53:36.516Z,99933.56
2022-07-31T03:56:06.386Z,99945.28
2022-07-31T03:58:33.313Z,99937.09
2022-07-31T04:01:00.147Z,99945.94
2022-07-31T04:03:32.782Z,99929.59
2022-07-31T04:05:59.328Z,99938.59
2022-07-31T04:08:26.048Z,99935.66
2022-07-31T04:10:52.618Z,99935.47
2022-07-31T04:13:19.139Z,99954.56
2022-07-31T04:15:45.683Z,99952.47
2022-07-31T04:18:12.211Z,99945.34
2022-07-31T04:20:38.751Z,99948.25
2022-07-31T04:23:07.177Z,99946.38
2022-07-31T04:25:33.833Z,99947.00
2022-07-31T04:28:01.392Z,99952.66
2022-07-31T04:30:27.952Z,99959.16
2022-07-31T04:32:54.577Z,99958.09
2022-07-31T04:35:22.331Z,99950.97
2022-07-31T04:37:48.942Z,99949.09
2022-07-31T04:40:15.985Z,99940.25
2022-07-31T04:42:42.554Z,99945.09
2022-07-31T04:45:09.671Z,99949.47
2022-07-31T04:47:37.133Z,99954.94
2022-07-31T04:50:04.857Z,99946.94
2022-07-31T04:52:31.356Z,99942.34
2022-07-31T04:54:57.881Z,99944.03
2022-07-31T04:57:24.369Z,99941.31
2022-07-31T05:00:00.302Z,99945.72
2022-07-31T05:02:28.347Z,99945.53
2022-07-31T05:04:56.855Z,99944.28
2022-07-31T05:07:25.934Z,99948.25
2022-07-31T05:09:55.948Z,99945.53
2022-07-31T05:12:22.471Z,99947.88
2022-07-31T05:14:49.008Z,99943.03
2022-07-31T05:17:15.536Z,99945.97
2022-07-31T05:19:42.039Z,99942.84
2022-07-31T05:22:08.959Z,99952.25
2022-07-31T05:24:35.830Z,99961.47
2022-07-31T05:27:02.993Z,99947.38
2022-07-31T05:29:30.305Z,99946.13
2022-07-31T05:32:00.204Z,99953.63
2022-07-31T05:34:36.257Z,99949.44
2022-07-31T05:37:03.508Z,99946.94
2022-07-31T05:39:30.646Z,99941.22
2022-07-31T05:41:57.328Z,99952.72
2022-07-31T05:44:24.534Z,99951.59
2022-07-31T05:49:17.616Z,99941.47
2022-07-31T05:51:45.247Z,99949.47
2022-07-31T05:54:11.804Z,99954.25
2022-07-31T05:56:38.657Z,99952.56
2022-07-31T05:59:05.228Z,99945.44
2022-07-31T06:01:31.824Z,99952.97
2022-07-31T06:03:58.476Z,99952.97
2022-07-31T06:06:25.015Z,99960.47
2022-07-31T06:08:51.633Z,99946.66
2022-07-31T06:11:18.202Z,99959.47
2022-07-31T06:13:44.901Z,99951.66
2022-07-31T06:16:13.728Z,99955.44
2022-07-31T06:18:40.667Z,99955.63
2022-07-31T06:21:07.202Z,99959.19
2022-07-31T06:23:33.873Z,99960.63
2022-07-31T06:26:00.895Z,99967.69
2022-07-31T06:28:35.370Z,99962.56
2022-07-31T06:31:21.683Z,99956.41
2022-07-31T06:33:49.723Z,99970.59
2022-07-31T06:36:17.378Z,99964.72
2022-07-31T06:38:43.917Z,99960.56
2022-07-31T06:41:10.614Z,99965.25
2022-07-31T06:43:37.530Z,99971.13
2022-07-31T06:46:04.133Z,99974.94
2022-07-31T06:48:32.093Z,99989.69
2022-07-31T06:53:45.118Z,99978.44
2022-07-31T06:56:11.821Z,99971.38
2022-07-31T06:58:38.344Z,99976.44
2022-07-31T07:01:04.958Z,99972.28
2022-07-31T07:03:31.523Z,99974.59
2022-07-31T07:05:58.057Z,99969.59
2022-07-31T07:08:25.165Z,99975.16
2022-07-31T07:10:51.986Z,99979.81
2022-07-31T07:13:18.534Z,99965.38
2022-07-31T07:15:45.038Z,99964.41
2022-07-31T07:18:11.839Z,99965.09
2022-07-31T07:20:38.758Z,99949.63
2022-07-31T07:23:05.307Z,99961.41
2022-07-31T07:25:32.002Z,99967.75
2022-07-31T07:27:58.988Z,99953.31
2022-07-31T07:30:28.531Z,99956.72
2022-07-31T07:32:55.412Z,99957.38
2022-07-31T07:35:22.237Z,99941.88
2022-07-31T07:37:49.030Z,99949.25
2022-07-31T07:40:17.021Z,99944.06
2022-07-31T07:42:44.101Z,99960.66
2022-07-31T07:45:11.142Z,99952.91
2022-07-31T07:47:53.630Z,99965.06
2022-07-31T07:50:26.964Z,99948.69
2022-07-31T07:52:55.907Z,99953.97
2022-07-31T07:55:22.447Z,99952.06
2022-07-31T07:57:49.051Z,99954.59
2022-07-31T08:00:16.279Z,99952.47
2022-07-31T08:02:44.876Z,99966.13
2022-07-31T08:05:29.617Z,99958.78
2022-07-31T08:07:56.163Z,99959.63
2022-07-31T08:10:22.738Z,99969.50
2022-07-31T08:12:50.378Z,99966.16
2022-07-31T08:15:16.929Z,99968.06
2022-07-31T08:17:43.465Z,99979.00
2022-07-31T08:20:10.220Z,99963.06
2022-07-31T08:22:36.795Z,99973.78
2022-07-31T08:25:05.315Z,99960.16
2022-07-31T08:27:39.475Z,99977.56
2022-07-31T08:30:08.154Z,99967.50
2022-07-31T08:32:35.028Z,99976.75
2022-07-31T08:35:01.741Z,99973.19
2022-07-31T08:37:52.206Z,99979.50
2022-07-31T08:40:17.941Z,99985.59
2022-07-31T08:42:46.087Z,99966.31
2022-07-31T08:45:13.998Z,99961.69
2022-07-31T08:47:42.239Z,99965.03
2022-07-31T08:50:12.126Z,99976.38
2022-07-31T08:52:42.734Z,99986.25
2022-07-31T08:55:09.662Z,99984.16
2022-07-31T08:57:37.072Z,99974.06
2022-07-31T09:00:09.874Z,99963.75
2022-07-31T09:02:39.293Z,99975.34
2022-07-31T09:05:06.341Z,99977.00
2022-07-31T09:07:32.928Z,99967.75
2022-07-31T09:09:59.451Z,99973.66
2022-07-31T09:12:34.801Z,99983.72
2022-07-31T09:15:01.858Z,99997.19
2022-07-31T09:17:35.760Z,99993.00
2022-07-31T09:20:04.479Z,99994.66
2022-07-31T09:22:31.925Z,99996.34
2022-07-31T09:25:12.162Z,100002.81
2022-07-31T09:27:39.139Z,100005.97
2022-07-31T09:30:07.494Z,100007.44
2022-07-31T09:32:34.179Z,100014.38
2022-07-31T09:35:12.218Z,100021.72
2022-07-31T09:37:40.183Z,100031.59
2022-07-31T09:40:08.533Z,100014.16
2022-07-31T09:42:45.553Z,100023.63
2022-07-31T09:45:23.870Z,100035.81
2022-07-31T09:48:08.551Z,100038.34
2022-07-31T09:50:52.647Z,100034.97
2022-07-31T09:53:19.798Z,100032.91
2022-07-31T09:55:53.661Z,100019.28
2022-07-31T09:58:21.330Z,100034.63
2022-07-31T10:00:51.851Z,100027.06
2022-07-31T10:03:19.619Z,100026.63
2022-07-31T10:05:47.599Z,100038.41
2022-07-31T10:08:15.050Z,100038.41
2022-07-31T10:10:45.965Z,100031.66
2022-07-31T10:13:18.082Z,100031.88
2022-07-31T10:15:48.757Z,100044.06
2022-07-31T10:18:35.676Z,100031.44
2022-07-31T10:21:05.520Z,100037.97
2022-07-31T10:23:39.080Z,100041.13
2022-07-31T10:26:05.644Z,100040.06
2022-07-31T10:28:32.654Z,100037.13
2022-07-31T10:30:59.499Z,100027.00
2022-07-31T10:33:43.679Z,100037.13
2022-07-31T10:36:19.896Z,100037.13
2022-07-31T10:39:01.631Z,100044.06
2022-07-31T10:41:56.074Z,100033.31
2022-07-31T10:45:02.911Z,100048.03
2022-07-31T10:47:29.500Z,100040.25
2022-07-31T10:49:56.019Z,100045.72
2022-07-31T10:52:34.876Z,100051.19
2022-07-31T10:55:02.084Z,100042.13
2022-07-31T10:57:34.403Z,100037.06
2022-07-31T11:00:12.074Z,100049.47
2022-07-31T11:02:38.923Z,100049.88
2022-07-31T11:05:21.561Z,100050.72
2022-07-31T11:07:59.210Z,100048.81
2022-07-31T11:10:25.792Z,100048.38
2022-07-31T11:13:02.559Z,100044.81
2022-07-31T11:15:29.182Z,100043.31
2022-07-31T11:18:21.823Z,100048.72
2022-07-31T11:20:46.854Z,100050.09
2022-07-31T11:23:16.777Z,100044.97
2022-07-31T11:25:46.688Z,100052.06
2022-07-31T11:28:24.619Z,100055.50
2022-07-31T11:31:02.203Z,100067.97
2022-07-31T11:33:42.157Z,100074.16
2022-07-31T11:36:21.462Z,100065.53
2022-07-31T11:38:50.463Z,100062.09
2022-07-31T11:41:22.003Z,100065.22
2022-07-31T11:43:51.291Z,100072.91
2022-07-31T11:46:29.925Z,100065.31
2022-07-31T11:48:57.747Z,100069.09
2022-07-31T11:51:25.528Z,100091.13
2022-07-31T11:53:57.286Z,100083.78
2022-07-31T11:56:25.995Z,100073.72
2022-07-31T11:58:57.675Z,100086.22
2022-07-31T12:01:29.363Z,100086.53
2022-07-31T12:04:08.400Z,100071.91
2022-07-31T12:06:36.533Z,100079.97
2022-07-31T12:09:03.790Z,100081.09
2022-07-31T12:11:30.510Z,100077.91
2022-07-31T12:13:57.467Z,100074.75
2022-07-31T12:16:25.315Z,100079.56
2022-07-31T12:18:59.181Z,100071.97
2022-07-31T12:21:37.090Z,100072.16
2022-07-31T12:24:14.486Z,100093.25
2022-07-31T12:26:48.951Z,100082.09
2022-07-31T12:29:15.467Z,100084.19
2022-07-31T12:31:50.156Z,100080.81
2022-07-31T12:34:38.312Z,100077.06
2022-07-31T12:37:12.877Z,100082.97
2022-07-31T12:39:59.983Z,100075.63
2022-07-31T12:42:37.573Z,100097.16
2022-07-31T12:45:18.211Z,100079.31
2022-07-31T12:47:52.469Z,100090.69
2022-07-31T12:50:23.569Z,100074.69
2022-07-31T12:52:50.519Z,100081.03
2022-07-31T12:55:17.835Z,100099.78
2022-07-31T12:57:51.577Z,100096.44
2022-07-31T13:00:24.085Z,100093.91
2022-07-31T13:02:52.012Z,100102.75
2022-07-31T13:05:19.074Z,100106.13
2022-07-31T13:07:45.799Z,100096.84
2022-07-31T13:10:19.859Z,100105.91
2022-07-31T13:12:52.167Z,100093.28
2022-07-31T13:15:22.436Z,100106.34
2022-07-31T13:17:50.418Z,100102.13
2022-07-31T13:20:17.558Z,100111.81
2022-07-31T13:22:44.121Z,100100.44
2022-07-31T13:25:10.866Z,100102.31
2022-07-31T13:27:37.505Z,100103.59
2022-07-31T13:30:04.880Z,100099.41
2022-07-31T13:32:31.861Z,100107.41
2022-07-31T13:35:26.363Z,100116.44
2022-07-31T13:37:46.953Z,100113.91
2022-07-31T13:40:14.149Z,100115.81
2022-07-31T13:42:40.673Z,100111.19
2022-07-31T13:45:08.537Z,100112.44
2022-07-31T13:47:51.029Z,100103.81
2022-07-31T13:50:19.116Z,100108.44
2022-07-31T13:52:45.712Z,100101.50
2022-07-31T13:55:12.234Z,100107.59
2022-07-31T13:57:38.761Z,100106.97
2022-07-31T14:00:06.235Z,100104.44
2022-07-31T14:02:32.927Z,100114.91
2022-07-31T14:04:59.502Z,100102.88
2022-07-31T14:07:45.084Z,100105.75
2022-07-31T14:10:17.131Z,100100.41
2022-07-31T14:12:46.556Z,100102.06
2022-07-31T14:15:13.114Z,100084.19
2022-07-31T14:17:40.250Z,100095.00
2022-07-31T14:20:07.284Z,100088.81
2022-07-31T14:22:33.801Z,100091.72
2022-07-31T14:25:00.594Z,100083.97
2022-07-31T14:27:27.142Z,100088.03
2022-07-31T14:29:53.690Z,100103.72
2022-07-31T14:32:21.987Z,100100.94
2022-07-31T14:34:51.677Z,100106.72
2022-07-31T14:37:18.864Z,100113.50
2022-07-31T14:39:45.446Z,100116.72
2022-07-31T14:42:12.458Z,100125.44
2022-07-31T14:44:41.846Z,100125.25
2022-07-31T14:47:09.819Z,100120.88
2022-07-31T14:50:09.849Z,100118.75
2022-07-31T14:52:23.910Z,100117.50
2022-07-31T14:54:50.445Z,100104.00
2022-07-31T14:57:20.217Z,100097.50
2022-07-31T14:59:50.042Z,100089.28
2022-07-31T15:02:21.821Z,100077.94
2022-07-31T15:04:49.028Z,100069.50
2022-07-31T15:10:05.848Z,100065.09
2022-07-31T15:12:32.621Z,100062.38
2022-07-31T15:14:59.343Z,100073.94
2022-07-31T15:17:26.122Z,100070.75
2022-07-31T15:19:52.717Z,100066.28
2022-07-31T15:22:19.551Z,100071.50
2022-07-31T15:24:48.773Z,100068.41
2022-07-31T15:27:22.147Z,100075.88
2022-07-31T15:30:00.728Z,100067.41
2022-07-31T15:32:33.803Z,100069.63
2022-07-31T15:35:00.337Z,100064.22
2022-07-31T15:37:26.900Z,100067.00
2022-07-31T15:40:02.941Z,100070.22
2022-07-31T15:42:37.162Z,100062.06
2022-07-31T15:45:04.309Z,100063.81
2022-07-31T15:47:30.831Z,100064.88
2022-07-31T15:49:57.397Z,100052.28
2022-07-31T15:52:24.193Z,100045.78
2022-07-31T15:54:51.665Z,100052.75
2022-07-31T15:57:21.197Z,100065.38
2022-07-31T15:59:48.671Z,100051.72
2022-07-31T16:02:15.465Z,100050.69
2022-07-31T16:04:52.793Z,100051.75
2022-07-31T16:08:32.838Z,100042.72
2022-07-31T16:10:16.540Z,100041.25
2022-07-31T16:12:49.711Z,100054.13
2022-07-31T16:15:17.066Z,100045.94
2022-07-31T16:17:44.832Z,100041.94
2022-07-31T16:20:25.790Z,100042.38
2022-07-31T16:22:58.300Z,100051.41
2022-07-31T16:25:25.893Z,100042.78
2022-07-31T16:27:52.663Z,100047.03
2022-07-31T16:30:19.269Z,100038.59
2022-07-31T16:32:45.864Z,100049.97
2022-07-31T16:35:12.824Z,100045.53
2022-07-31T16:37:50.137Z,100039.66
2022-07-31T16:40:28.533Z,100046.41
2022-07-31T16:43:49.333Z,100042.81
2022-07-31T16:45:52.402Z,100044.91
2022-07-31T16:48:19.480Z,100036.09
2022-07-31T16:50:53.216Z,100037.16
2022-07-31T16:54:10.533Z,100037.78
2022-07-31T16:56:07.331Z,100030.63
2022-07-31T16:58:34.781Z,100032.94
2022-07-31T17:01:03.937Z,100040.94
2022-07-31T17:03:58.643Z,100036.50
2022-07-31T17:06:17.537Z,100037.34
2022-07-31T17:08:44.073Z,100036.94
2022-07-31T17:11:10.626Z,100037.78
2022-07-31T17:13:37.137Z,100025.56
2022-07-31T17:16:03.950Z,100028.50
2022-07-31T17:18:30.483Z,100027.03
2022-07-31T17:20:57.123Z,100018.81
2022-07-31T17:23:43.629Z,100027.88
2022-07-31T17:26:20.833Z,100043.63
2022-07-31T17:28:48.561Z,100047.03
2022-07-31T17:31:15.206Z,100047.22
2022-07-31T17:33:58.282Z,100051.84
2022-07-31T17:36:28.970Z,100037.09
2022-07-31T17:38:57.329Z,100044.50
2022-07-31T17:41:25.564Z,100062.56
2022-07-31T17:43:55.879Z,100070.78
2022-07-31T17:46:29.913Z,100079.19
2022-07-31T17:49:04.661Z,100078.38
2022-07-31T17:51:31.396Z,100072.03
2022-07-31T17:53:59.313Z,100073.94
2022-07-31T17:56:28.650Z,100073.53
2022-07-31T17:59:03.825Z,100081.31
2022-07-31T18:01:30.616Z,100082.34
2022-07-31T18:03:57.239Z,100081.72
2022-07-31T18:06:23.791Z,100076.47
2022-07-31T18:08:50.424Z,100085.28
2022-07-31T18:11:17.241Z,100085.09
2022-07-31T18:13:48.206Z,100085.09
2022-07-31T18:16:16.459Z,100095.19
2022-07-31T18:18:43.155Z,100088.66
2022-07-31T18:21:09.987Z,100093.91
2022-07-31T18:23:36.507Z,100088.84
2022-07-31T18:26:10.480Z,100096.84
2022-07-31T18:28:37.426Z,100090.31
2022-07-31T18:31:04.149Z,100088.63
2022-07-31T18:33:50.662Z,100088.22
2022-07-31T18:36:17.719Z,100089.88
2022-07-31T18:38:44.259Z,100090.09
2022-07-31T18:41:10.871Z,100095.50
2022-07-31T18:43:37.424Z,100094.66
2022-07-31T18:46:03.948Z,100095.09
2022-07-31T18:48:30.757Z,100100.13
2022-07-31T18:51:04.458Z,100096.72
2022-07-31T18:53:32.140Z,100103.03
2022-07-31T18:55:58.680Z,100107.22
2022-07-31T18:58:25.481Z,100114.75
2022-07-31T19:00:55.229Z,100117.06
2022-07-31T19:03:22.008Z,100120.41
2022-07-31T19:05:50.109Z,100124.38
2022-07-31T19:08:16.723Z,100129.63
2022-07-31T19:10:43.249Z,100130.84
2022-07-31T19:13:18.633Z,100128.13
2022-07-31T19:15:47.481Z,100131.47
2022-07-31T19:18:15.119Z,100135.22
2022-07-31T19:20:56.157Z,100141.53
2022-07-31T19:23:25.207Z,100147.97
2022-07-31T19:26:03.052Z,100158.69
2022-07-31T19:28:34.974Z,100151.97
2022-07-31T19:31:01.680Z,100166.41
2022-07-31T19:33:28.284Z,100164.06
2022-07-31T19:36:00.899Z,100156.47
2022-07-31T19:38:29.442Z,100158.34
2022-07-31T19:40:56.008Z,100154.81
2022-07-31T19:43:22.570Z,100147.19
2022-07-31T19:46:02.697Z,100148.66
2022-07-31T19:48:36.619Z,100150.06
2022-07-31T19:51:03.782Z,100150.00
2022-07-31T19:53:30.400Z,100147.50
2022-07-31T19:55:57.420Z,100134.25
2022-07-31T19:58:23.963Z,100131.94
2022-07-31T20:00:50.573Z,100131.22
2022-07-31T20:03:17.219Z,100133.28
2022-07-31T20:05:43.946Z,100139.09
2022-07-31T20:08:10.545Z,100130.28
2022-07-31T20:10:37.225Z,100128.34
2022-07-31T20:13:03.781Z,100126.19
2022-07-31T20:15:51.047Z,100131.19
2022-07-31T20:18:26.872Z,100120.88
2022-07-31T20:20:57.211Z,100123.97
2022-07-31T20:23:25.100Z,100125.03
2022-07-31T20:25:51.871Z,100124.56
2022-07-31T20:28:18.480Z,100129.38
2022-07-31T20:30:45.178Z,100133.16
2022-07-31T20:33:13.259Z,100127.03
2022-07-31T20:35:49.102Z,100123.69
2022-07-31T20:38:22.370Z,100125.75
2022-07-31T20:40:53.432Z,100125.94
2022-07-31T20:43:21.239Z,100126.31
2022-07-31T20:45:48.251Z,100130.94
2022-07-31T20:48:17.680Z,100122.09
2022-07-31T20:50:44.366Z,100125.03
2022-07-31T20:53:15.264Z,100134.63
2022-07-31T20:55:41.846Z,100134.44
2022-07-31T20:58:08.390Z,100138.59
2022-07-31T21:00:38.133Z,100140.44
2022-07-31T21:03:05.838Z,100133.72
2022-07-31T21:05:32.668Z,100134.25
2022-07-31T21:07:59.292Z,100139.44
2022-07-31T21:10:29.529Z,100140.19
2022-07-31T21:12:56.947Z,100148.50
2022-07-31T21:15:42.394Z,100144.28
2022-07-31T21:18:12.383Z,100141.72
2022-07-31T21:20:51.156Z,100139.59
2022-07-31T21:23:24.410Z,100146.25
2022-07-31T21:25:52.780Z,100146.25
2022-07-31T21:28:19.669Z,100146.25
2022-07-31T21:30:46.591Z,100153.56
2022-07-31T21:33:13.314Z,100147.88
2022-07-31T21:35:40.637Z,100152.47
2022-07-31T21:38:12.284Z,100148.25
2022-07-31T21:40:39.664Z,100150.78
2022-07-31T21:43:06.498Z,100148.63
2022-07-31T21:45:51.035Z,100155.09
2022-07-31T21:48:22.632Z,100162.44
2022-07-31T21:50:49.227Z,100162.63
2022-07-31T21:53:15.769Z,100159.44
2022-07-31T21:55:42.386Z,100164.41
2022-07-31T21:58:09.664Z,100171.06
2022-07-31T22:00:37.361Z,100175.47
2022-07-31T22:03:04.484Z,100164.59
2022-07-31T22:05:50.261Z,100168.34
2022-07-31T22:08:17.243Z,100177.25
2022-07-31T22:10:43.973Z,100173.03
2022-07-31T22:13:10.506Z,100170.03
2022-07-31T22:15:59.053Z,100171.59
2022-07-31T22:18:26.575Z,100165.91
2022-07-31T22:20:53.816Z,100177.78
2022-07-31T22:23:20.814Z,100179.22
2022-07-31T22:25:49.104Z,100173.78
2022-07-31T22:28:19.680Z,100175.63
2022-07-31T22:30:46.451Z,100168.88
2022-07-31T22:33:13.205Z,100161.28
2022-07-31T22:35:40.878Z,100168.06
2022-07-31T22:38:08.567Z,100160.50
2022-07-31T22:40:35.380Z,100164.59
2022-07-31T22:43:02.643Z,100158.91
2022-07-31T22:45:30.172Z,100161.09
2022-07-31T22:47:57.814Z,100167.78
2022-07-31T22:50:25.236Z,100162.41
2022-07-31T22:52:52.663Z,100160.97
2022-07-31T22:55:19.199Z,100157.31
2022-07-31T22:57:45.766Z,100162.44
2022-07-31T23:00:14.689Z,100165.50
2022-07-31T23:02:42.828Z,100169.09
2022-07-31T23:05:10.225Z,100170.13
2022-07-31T23:07:37.290Z,100165.88
2022-07-31T23:10:06.055Z,100163.69
2022-07-31T23:12:32.651Z,100158.47
2022-07-31T23:14:59.235Z,100162.00
2022-07-31T23:17:25.833Z,100167.91
2022-07-31T23:19:54.418Z,100164.56
2022-07-31T23:22:33.953Z,100173.84
2022-07-31T23:25:07.498Z,100163.03
2022-07-31T23:27:34.924Z,100157.06
2022-07-31T23:30:01.573Z,100151.63
2022-07-31T23:32:28.431Z,100145.56
2022-07-31T23:34:55.240Z,100149.94
2022-07-31T23:37:21.956Z,100154.59
2022-07-31T23:39:48.489Z,100158.81
2022-07-31T23:42:33.258Z,100150.25
2022-07-31T23:44:59.806Z,100151.00
2022-07-31T23:47:34.014Z,100156.41
2022-07-31T23:50:15.302Z,100148.94
2022-07-31T23:52:45.299Z,100142.16
2022-07-31T23:55:12.268Z,100137.56
2022-07-31T23:57:39.645Z,100145.56
